sensor_id;sensor_type;location;lat;lon;timestamp;P1;durP1;ratioP1;P2;durP2;ratioP2
51216;SDS011;37283;49.760;8.648;2023-08-17T00:01:32;4.63;;;1.88;;
51216;SDS011;37283;49.760;8.648;2023-08-17T00:03:58;3.15;;;1.52;;
51216;SDS011;37283;49.760;8.648;2023-08-17T00:06:25;2.78;;;1.52;;
51216;SDS011;37283;49.760;8.648;2023-08-17T00:08:52;5.00;;;1.80;;
51216;SDS011;37283;49.760;8.648;2023-08-17T00:11:18;3.47;;;1.85;;
51216;SDS011;37283;49.760;8.648;2023-08-17T00:13:45;3.60;;;1.73;;
51216;SDS011;37283;49.760;8.648;2023-08-17T00:16:11;4.10;;;1.85;;
51216;SDS011;37283;49.760;8.648;2023-08-17T00:18:38;2.90;;;1.63;;
51216;SDS011;37283;49.760;8.648;2023-08-17T00:21:05;7.38;;;1.90;;
51216;SDS011;37283;49.760;8.648;2023-08-17T00:23:31;3.92;;;1.90;;
51216;SDS011;37283;49.760;8.648;2023-08-17T00:25:58;5.10;;;1.58;;
51216;SDS011;37283;49.760;8.648;2023-08-17T00:28:25;4.22;;;1.90;;
51216;SDS011;37283;49.760;8.648;2023-08-17T00:30:51;8.02;;;2.08;;
51216;SDS011;37283;49.760;8.648;2023-08-17T00:33:18;3.75;;;2.00;;
51216;SDS011;37283;49.760;8.648;2023-08-17T00:35:46;5.05;;;1.95;;
51216;SDS011;37283;49.760;8.648;2023-08-17T00:38:12;3.65;;;1.85;;
51216;SDS011;37283;49.760;8.648;2023-08-17T00:40:39;4.60;;;2.00;;
51216;SDS011;37283;49.760;8.648;2023-08-17T00:43:05;6.85;;;2.20;;
51216;SDS011;37283;49.760;8.648;2023-08-17T00:45:33;6.28;;;2.03;;
51216;SDS011;37283;49.760;8.648;2023-08-17T00:48:00;6.15;;;1.92;;
51216;SDS011;37283;49.760;8.648;2023-08-17T00:50:26;6.65;;;1.92;;
51216;SDS011;37283;49.760;8.648;2023-08-17T00:52:54;7.70;;;2.20;;
51216;SDS011;37283;49.760;8.648;2023-08-17T00:55:22;5.15;;;2.30;;
51216;SDS011;37283;49.760;8.648;2023-08-17T00:57:48;7.55;;;2.00;;
51216;SDS011;37283;49.760;8.648;2023-08-17T01:00:15;7.13;;;2.30;;
51216;SDS011;37283;49.760;8.648;2023-08-17T01:02:45;10.02;;;2.35;;
51216;SDS011;37283;49.760;8.648;2023-08-17T01:05:15;5.97;;;2.20;;
51216;SDS011;37283;49.760;8.648;2023-08-17T01:07:42;8.60;;;2.00;;
51216;SDS011;37283;49.760;8.648;2023-08-17T01:10:09;5.63;;;1.80;;
51216;SDS011;37283;49.760;8.648;2023-08-17T01:15:28;7.10;;;2.10;;
51216;SDS011;37283;49.760;8.648;2023-08-17T01:18:44;4.20;;;1.88;;
51216;SDS011;37283;49.760;8.648;2023-08-17T01:21:02;6.78;;;2.20;;
51216;SDS011;37283;49.760;8.648;2023-08-17T01:23:32;7.40;;;2.42;;
51216;SDS011;37283;49.760;8.648;2023-08-17T01:25:58;9.50;;;2.40;;
51216;SDS011;37283;49.760;8.648;2023-08-17T01:28:26;6.13;;;2.10;;
51216;SDS011;37283;49.760;8.648;2023-08-17T01:31:08;6.93;;;1.92;;
51216;SDS011;37283;49.760;8.648;2023-08-17T01:33:40;4.93;;;1.95;;
51216;SDS011;37283;49.760;8.648;2023-08-17T01:36:11;5.03;;;1.92;;
51216;SDS011;37283;49.760;8.648;2023-08-17T01:38:41;3.22;;;2.08;;
51216;SDS011;37283;49.760;8.648;2023-08-17T01:41:09;6.43;;;2.17;;
51216;SDS011;37283;49.760;8.648;2023-08-17T01:43:42;6.97;;;2.10;;
51216;SDS011;37283;49.760;8.648;2023-08-17T01:46:17;6.25;;;2.20;;
51216;SDS011;37283;49.760;8.648;2023-08-17T01:48:44;5.38;;;2.05;;
51216;SDS011;37283;49.760;8.648;2023-08-17T01:51:15;5.70;;;2.17;;
51216;SDS011;37283;49.760;8.648;2023-08-17T01:53:45;7.22;;;2.22;;
51216;SDS011;37283;49.760;8.648;2023-08-17T01:56:11;6.50;;;2.10;;
51216;SDS011;37283;49.760;8.648;2023-08-17T01:58:38;7.20;;;2.05;;
51216;SDS011;37283;49.760;8.648;2023-08-17T02:01:05;5.72;;;2.15;;
51216;SDS011;37283;49.760;8.648;2023-08-17T02:03:31;5.93;;;2.00;;
51216;SDS011;37283;49.760;8.648;2023-08-17T02:05:58;5.43;;;2.08;;
51216;SDS011;37283;49.760;8.648;2023-08-17T02:08:25;7.07;;;2.13;;
51216;SDS011;37283;49.760;8.648;2023-08-17T02:10:52;5.72;;;2.40;;
51216;SDS011;37283;49.760;8.648;2023-08-17T02:13:20;6.22;;;2.40;;
51216;SDS011;37283;49.760;8.648;2023-08-17T02:15:47;5.90;;;2.22;;
51216;SDS011;37283;49.760;8.648;2023-08-17T02:18:13;4.55;;;2.05;;
51216;SDS011;37283;49.760;8.648;2023-08-17T02:20:41;5.88;;;2.15;;
51216;SDS011;37283;49.760;8.648;2023-08-17T02:23:07;4.47;;;2.60;;
51216;SDS011;37283;49.760;8.648;2023-08-17T02:25:37;6.45;;;2.40;;
51216;SDS011;37283;49.760;8.648;2023-08-17T02:28:04;4.53;;;2.35;;
51216;SDS011;37283;49.760;8.648;2023-08-17T02:30:31;5.97;;;3.33;;
51216;SDS011;37283;49.760;8.648;2023-08-17T02:32:57;5.20;;;3.42;;
51216;SDS011;37283;49.760;8.648;2023-08-17T02:35:24;6.03;;;3.80;;
51216;SDS011;37283;49.760;8.648;2023-08-17T02:37:51;5.97;;;4.60;;
51216;SDS011;37283;49.760;8.648;2023-08-17T02:40:17;6.15;;;5.38;;
51216;SDS011;37283;49.760;8.648;2023-08-17T02:42:44;5.65;;;5.05;;
51216;SDS011;37283;49.760;8.648;2023-08-17T02:45:10;7.22;;;4.80;;
51216;SDS011;37283;49.760;8.648;2023-08-17T02:47:37;6.20;;;4.50;;
51216;SDS011;37283;49.760;8.648;2023-08-17T02:50:04;7.53;;;4.13;;
51216;SDS011;37283;49.760;8.648;2023-08-17T02:52:32;5.45;;;3.47;;
51216;SDS011;37283;49.760;8.648;2023-08-17T02:54:58;7.53;;;4.10;;
51216;SDS011;37283;49.760;8.648;2023-08-17T02:57:25;5.00;;;3.28;;
51216;SDS011;37283;49.760;8.648;2023-08-17T02:59:52;6.55;;;2.90;;
51216;SDS011;37283;49.760;8.648;2023-08-17T03:02:19;8.38;;;4.97;;
51216;SDS011;37283;49.760;8.648;2023-08-17T03:04:45;6.18;;;4.40;;
51216;SDS011;37283;49.760;8.648;2023-08-17T03:07:12;13.13;;;5.20;;
51216;SDS011;37283;49.760;8.648;2023-08-17T03:09:38;9.82;;;3.88;;
51216;SDS011;37283;49.760;8.648;2023-08-17T03:12:05;13.32;;;5.10;;
51216;SDS011;37283;49.760;8.648;2023-08-17T03:14:31;8.70;;;5.25;;
51216;SDS011;37283;49.760;8.648;2023-08-17T03:16:58;10.52;;;6.53;;
51216;SDS011;37283;49.760;8.648;2023-08-17T03:19:25;8.65;;;7.13;;
51216;SDS011;37283;49.760;8.648;2023-08-17T03:21:52;7.45;;;5.10;;
51216;SDS011;37283;49.760;8.648;2023-08-17T03:24:18;8.20;;;5.13;;
51216;SDS011;37283;49.760;8.648;2023-08-17T03:26:46;14.05;;;6.68;;
51216;SDS011;37283;49.760;8.648;2023-08-17T03:29:13;10.75;;;6.50;;
51216;SDS011;37283;49.760;8.648;2023-08-17T03:31:40;8.68;;;6.47;;
51216;SDS011;37283;49.760;8.648;2023-08-17T03:34:08;10.10;;;5.88;;
51216;SDS011;37283;49.760;8.648;2023-08-17T03:36:35;10.73;;;6.55;;
51216;SDS011;37283;49.760;8.648;2023-08-17T03:39:01;8.57;;;5.70;;
51216;SDS011;37283;49.760;8.648;2023-08-17T03:41:28;5.70;;;5.13;;
51216;SDS011;37283;49.760;8.648;2023-08-17T03:43:54;7.88;;;5.43;;
51216;SDS011;37283;49.760;8.648;2023-08-17T03:46:21;10.13;;;5.20;;
51216;SDS011;37283;49.760;8.648;2023-08-17T03:48:47;7.05;;;5.30;;
51216;SDS011;37283;49.760;8.648;2023-08-17T03:51:14;7.15;;;4.10;;
51216;SDS011;37283;49.760;8.648;2023-08-17T03:53:41;5.90;;;3.80;;
51216;SDS011;37283;49.760;8.648;2023-08-17T03:56:07;4.55;;;3.30;;
51216;SDS011;37283;49.760;8.648;2023-08-17T03:58:34;6.88;;;3.47;;
51216;SDS011;37283;49.760;8.648;2023-08-17T04:01:01;5.30;;;3.08;;
51216;SDS011;37283;49.760;8.648;2023-08-17T04:03:30;6.63;;;2.90;;
51216;SDS011;37283;49.760;8.648;2023-08-17T04:06:03;5.17;;;2.37;;
51216;SDS011;37283;49.760;8.648;2023-08-17T04:08:31;4.45;;;2.63;;
51216;SDS011;37283;49.760;8.648;2023-08-17T04:10:57;3.47;;;2.38;;
51216;SDS011;37283;49.760;8.648;2023-08-17T04:13:24;4.85;;;2.67;;
51216;SDS011;37283;49.760;8.648;2023-08-17T04:15:52;9.05;;;2.42;;
51216;SDS011;37283;49.760;8.648;2023-08-17T04:18:18;8.07;;;2.58;;
51216;SDS011;37283;49.760;8.648;2023-08-17T04:20:45;6.38;;;2.47;;
51216;SDS011;37283;49.760;8.648;2023-08-17T04:23:14;3.75;;;2.53;;
51216;SDS011;37283;49.760;8.648;2023-08-17T04:25:41;7.85;;;2.67;;
51216;SDS011;37283;49.760;8.648;2023-08-17T04:28:08;7.03;;;3.80;;
51216;SDS011;37283;49.760;8.648;2023-08-17T04:30:35;6.45;;;3.22;;
51216;SDS011;37283;49.760;8.648;2023-08-17T04:33:02;6.05;;;3.13;;
51216;SDS011;37283;49.760;8.648;2023-08-17T04:35:29;8.93;;;3.10;;
51216;SDS011;37283;49.760;8.648;2023-08-17T04:37:55;6.15;;;3.13;;
51216;SDS011;37283;49.760;8.648;2023-08-17T04:40:22;6.70;;;2.88;;
51216;SDS011;37283;49.760;8.648;2023-08-17T04:42:49;5.78;;;2.47;;
51216;SDS011;37283;49.760;8.648;2023-08-17T04:45:15;6.35;;;2.58;;
51216;SDS011;37283;49.760;8.648;2023-08-17T04:47:44;6.32;;;2.50;;
51216;SDS011;37283;49.760;8.648;2023-08-17T04:50:12;5.22;;;2.80;;
51216;SDS011;37283;49.760;8.648;2023-08-17T04:52:43;6.30;;;2.88;;
51216;SDS011;37283;49.760;8.648;2023-08-17T04:55:10;4.43;;;3.00;;
51216;SDS011;37283;49.760;8.648;2023-08-17T04:57:41;5.53;;;4.30;;
51216;SDS011;37283;49.760;8.648;2023-08-17T05:00:10;5.10;;;4.60;;
51216;SDS011;37283;49.760;8.648;2023-08-17T05:02:37;6.35;;;4.30;;
51216;SDS011;37283;49.760;8.648;2023-08-17T05:05:05;5.47;;;4.72;;
51216;SDS011;37283;49.760;8.648;2023-08-17T05:07:33;6.00;;;5.05;;
51216;SDS011;37283;49.760;8.648;2023-08-17T05:10:00;7.45;;;4.93;;
51216;SDS011;37283;49.760;8.648;2023-08-17T05:14:56;5.47;;;4.95;;
51216;SDS011;37283;49.760;8.648;2023-08-17T05:17:24;6.80;;;5.55;;
51216;SDS011;37283;49.760;8.648;2023-08-17T05:19:51;5.97;;;5.03;;
51216;SDS011;37283;49.760;8.648;2023-08-17T05:22:17;8.02;;;6.50;;
51216;SDS011;37283;49.760;8.648;2023-08-17T05:24:44;6.75;;;6.13;;
51216;SDS011;37283;49.760;8.648;2023-08-17T05:27:11;6.85;;;6.20;;
51216;SDS011;37283;49.760;8.648;2023-08-17T05:29:37;7.18;;;6.20;;
51216;SDS011;37283;49.760;8.648;2023-08-17T05:32:04;7.00;;;6.30;;
51216;SDS011;37283;49.760;8.648;2023-08-17T05:34:31;7.63;;;6.82;;
51216;SDS011;37283;49.760;8.648;2023-08-17T05:36:58;6.78;;;6.07;;
51216;SDS011;37283;49.760;8.648;2023-08-17T05:39:25;6.22;;;5.53;;
51216;SDS011;37283;49.760;8.648;2023-08-17T05:41:52;7.15;;;5.80;;
51216;SDS011;37283;49.760;8.648;2023-08-17T05:44:19;7.72;;;5.53;;
51216;SDS011;37283;49.760;8.648;2023-08-17T05:46:46;6.25;;;5.28;;
51216;SDS011;37283;49.760;8.648;2023-08-17T05:49:12;8.75;;;5.80;;
51216;SDS011;37283;49.760;8.648;2023-08-17T05:51:39;8.27;;;5.47;;
51216;SDS011;37283;49.760;8.648;2023-08-17T05:54:06;7.15;;;6.03;;
51216;SDS011;37283;49.760;8.648;2023-08-17T05:56:33;6.05;;;5.28;;
51216;SDS011;37283;49.760;8.648;2023-08-17T05:58:59;6.30;;;5.43;;
51216;SDS011;37283;49.760;8.648;2023-08-17T06:01:26;5.25;;;4.75;;
51216;SDS011;37283;49.760;8.648;2023-08-17T06:03:52;5.40;;;4.72;;
51216;SDS011;37283;49.760;8.648;2023-08-17T06:06:19;5.30;;;4.80;;
51216;SDS011;37283;49.760;8.648;2023-08-17T06:08:47;5.03;;;4.32;;
51216;SDS011;37283;49.760;8.648;2023-08-17T06:11:13;5.63;;;3.75;;
51216;SDS011;37283;49.760;8.648;2023-08-17T06:13:40;4.57;;;3.95;;
51216;SDS011;37283;49.760;8.648;2023-08-17T06:16:07;4.50;;;4.10;;
51216;SDS011;37283;49.760;8.648;2023-08-17T06:18:33;4.50;;;3.80;;
51216;SDS011;37283;49.760;8.648;2023-08-17T06:21:00;5.50;;;3.90;;
51216;SDS011;37283;49.760;8.648;2023-08-17T06:23:26;4.47;;;4.07;;
51216;SDS011;37283;49.760;8.648;2023-08-17T06:25:57;5.50;;;4.28;;
51216;SDS011;37283;49.760;8.648;2023-08-17T06:28:25;6.15;;;4.47;;
51216;SDS011;37283;49.760;8.648;2023-08-17T06:30:52;5.25;;;3.72;;
51216;SDS011;37283;49.760;8.648;2023-08-17T06:33:19;4.13;;;3.70;;
51216;SDS011;37283;49.760;8.648;2023-08-17T06:35:46;4.40;;;3.80;;
51216;SDS011;37283;49.760;8.648;2023-08-17T06:38:13;4.28;;;3.78;;
51216;SDS011;37283;49.760;8.648;2023-08-17T06:40:40;5.28;;;3.83;;
51216;SDS011;37283;49.760;8.648;2023-08-17T06:43:07;4.05;;;3.65;;
51216;SDS011;37283;49.760;8.648;2023-08-17T06:45:34;4.72;;;3.55;;
51216;SDS011;37283;49.760;8.648;2023-08-17T06:48:01;54.97;;;9.70;;
51216;SDS011;37283;49.760;8.648;2023-08-17T06:50:27;12.25;;;4.75;;
51216;SDS011;37283;49.760;8.648;2023-08-17T06:52:54;32.17;;;7.95;;
51216;SDS011;37283;49.760;8.648;2023-08-17T06:55:21;25.30;;;5.90;;
51216;SDS011;37283;49.760;8.648;2023-08-17T06:57:47;12.13;;;4.78;;
51216;SDS011;37283;49.760;8.648;2023-08-17T07:00:18;7.05;;;3.80;;
51216;SDS011;37283;49.760;8.648;2023-08-17T07:02:47;3.80;;;3.40;;
51216;SDS011;37283;49.760;8.648;2023-08-17T07:05:22;5.30;;;4.10;;
51216;SDS011;37283;49.760;8.648;2023-08-17T07:07:49;4.93;;;3.30;;
51216;SDS011;37283;49.760;8.648;2023-08-17T07:10:15;3.95;;;3.53;;
51216;SDS011;37283;49.760;8.648;2023-08-17T07:12:42;3.65;;;3.10;;
51216;SDS011;37283;49.760;8.648;2023-08-17T07:15:09;4.25;;;3.03;;
51216;SDS011;37283;49.760;8.648;2023-08-17T07:17:36;4.13;;;3.72;;
51216;SDS011;37283;49.760;8.648;2023-08-17T07:20:03;32.25;;;6.28;;
51216;SDS011;37283;49.760;8.648;2023-08-17T07:22:33;4.93;;;3.45;;
51216;SDS011;37283;49.760;8.648;2023-08-17T07:25:01;4.50;;;3.67;;
51216;SDS011;37283;49.760;8.648;2023-08-17T07:27:27;4.82;;;3.50;;
51216;SDS011;37283;49.760;8.648;2023-08-17T07:29:54;3.97;;;3.50;;
51216;SDS011;37283;49.760;8.648;2023-08-17T07:32:21;3.40;;;3.05;;
51216;SDS011;37283;49.760;8.648;2023-08-17T07:34:47;7.72;;;4.55;;
51216;SDS011;37283;49.760;8.648;2023-08-17T07:37:15;5.10;;;3.83;;
51216;SDS011;37283;49.760;8.648;2023-08-17T07:39:41;4.68;;;4.07;;
51216;SDS011;37283;49.760;8.648;2023-08-17T07:42:08;4.70;;;4.03;;
51216;SDS011;37283;49.760;8.648;2023-08-17T07:44:35;6.50;;;4.65;;
51216;SDS011;37283;49.760;8.648;2023-08-17T07:47:01;4.82;;;4.32;;
51216;SDS011;37283;49.760;8.648;2023-08-17T07:49:28;4.50;;;4.10;;
51216;SDS011;37283;49.760;8.648;2023-08-17T07:51:58;5.18;;;3.80;;
51216;SDS011;37283;49.760;8.648;2023-08-17T07:54:24;4.10;;;3.70;;
51216;SDS011;37283;49.760;8.648;2023-08-17T07:56:51;4.38;;;3.90;;
51216;SDS011;37283;49.760;8.648;2023-08-17T07:59:18;4.00;;;3.60;;
51216;SDS011;37283;49.760;8.648;2023-08-17T08:01:44;4.03;;;3.63;;
51216;SDS011;37283;49.760;8.648;2023-08-17T08:04:11;4.60;;;4.20;;
51216;SDS011;37283;49.760;8.648;2023-08-17T08:06:37;5.18;;;4.68;;
51216;SDS011;37283;49.760;8.648;2023-08-17T08:09:04;5.22;;;4.72;;
51216;SDS011;37283;49.760;8.648;2023-08-17T08:11:30;4.70;;;4.30;;
51216;SDS011;37283;49.760;8.648;2023-08-17T08:13:57;5.65;;;5.05;;
51216;SDS011;37283;49.760;8.648;2023-08-17T08:16:24;5.68;;;5.05;;
51216;SDS011;37283;49.760;8.648;2023-08-17T08:18:51;6.72;;;4.50;;
51216;SDS011;37283;49.760;8.648;2023-08-17T08:21:17;6.80;;;5.10;;
51216;SDS011;37283;49.760;8.648;2023-08-17T08:23:44;4.88;;;4.47;;
51216;SDS011;37283;49.760;8.648;2023-08-17T08:26:10;5.40;;;4.68;;
51216;SDS011;37283;49.760;8.648;2023-08-17T08:28:37;4.45;;;3.85;;
51216;SDS011;37283;49.760;8.648;2023-08-17T08:31:03;4.75;;;3.92;;
51216;SDS011;37283;49.760;8.648;2023-08-17T08:33:30;5.03;;;3.20;;
51216;SDS011;37283;49.760;8.648;2023-08-17T08:35:57;4.35;;;3.40;;
51216;SDS011;37283;49.760;8.648;2023-08-17T08:38:24;4.32;;;3.92;;
51216;SDS011;37283;49.760;8.648;2023-08-17T08:40:50;4.13;;;3.72;;
51216;SDS011;37283;49.760;8.648;2023-08-17T08:43:17;3.92;;;3.50;;
51216;SDS011;37283;49.760;8.648;2023-08-17T08:45:44;3.55;;;3.20;;
51216;SDS011;37283;49.760;8.648;2023-08-17T08:48:11;4.75;;;3.30;;
51216;SDS011;37283;49.760;8.648;2023-08-17T08:50:39;3.88;;;2.80;;
51216;SDS011;37283;49.760;8.648;2023-08-17T08:53:16;3.20;;;2.78;;
51216;SDS011;37283;49.760;8.648;2023-08-17T08:55:47;4.25;;;2.78;;
51216;SDS011;37283;49.760;8.648;2023-08-17T08:58:15;3.30;;;3.00;;
51216;SDS011;37283;49.760;8.648;2023-08-17T09:00:42;5.70;;;3.13;;
51216;SDS011;37283;49.760;8.648;2023-08-17T09:03:11;3.80;;;3.08;;
51216;SDS011;37283;49.760;8.648;2023-08-17T09:05:38;4.75;;;3.50;;
51216;SDS011;37283;49.760;8.648;2023-08-17T09:08:08;5.07;;;3.38;;
51216;SDS011;37283;49.760;8.648;2023-08-17T09:10:36;3.83;;;2.78;;
51216;SDS011;37283;49.760;8.648;2023-08-17T09:13:04;6.25;;;3.70;;
51216;SDS011;37283;49.760;8.648;2023-08-17T09:15:31;5.53;;;3.58;;
51216;SDS011;37283;49.760;8.648;2023-08-17T09:17:58;4.50;;;3.38;;
51216;SDS011;37283;49.760;8.648;2023-08-17T09:23:16;4.53;;;3.45;;
51216;SDS011;37283;49.760;8.648;2023-08-17T09:25:46;4.15;;;3.53;;
51216;SDS011;37283;49.760;8.648;2023-08-17T09:28:13;4.15;;;3.10;;
51216;SDS011;37283;49.760;8.648;2023-08-17T09:30:53;4.13;;;3.70;;
51216;SDS011;37283;49.760;8.648;2023-08-17T09:33:24;6.22;;;3.85;;
51216;SDS011;37283;49.760;8.648;2023-08-17T09:35:52;4.18;;;3.45;;
51216;SDS011;37283;49.760;8.648;2023-08-17T09:38:24;4.50;;;3.80;;
51216;SDS011;37283;49.760;8.648;2023-08-17T09:40:50;4.53;;;3.80;;
51216;SDS011;37283;49.760;8.648;2023-08-17T09:43:18;4.18;;;3.78;;
51216;SDS011;37283;49.760;8.648;2023-08-17T09:45:47;4.93;;;3.35;;
51216;SDS011;37283;49.760;8.648;2023-08-17T09:48:16;3.95;;;3.47;;
51216;SDS011;37283;49.760;8.648;2023-08-17T09:50:47;6.22;;;4.15;;
51216;SDS011;37283;49.760;8.648;2023-08-17T09:53:15;6.20;;;3.75;;
51216;SDS011;37283;49.760;8.648;2023-08-17T09:55:43;4.80;;;3.97;;
51216;SDS011;37283;49.760;8.648;2023-08-17T09:58:10;5.07;;;4.22;;
51216;SDS011;37283;49.760;8.648;2023-08-17T10:00:45;6.25;;;3.97;;
51216;SDS011;37283;49.760;8.648;2023-08-17T10:03:18;4.95;;;4.47;;
51216;SDS011;37283;49.760;8.648;2023-08-17T10:08:21;5.30;;;4.32;;
51216;SDS011;37283;49.760;8.648;2023-08-17T10:10:48;5.53;;;4.95;;
51216;SDS011;37283;49.760;8.648;2023-08-17T10:13:30;4.30;;;3.90;;
51216;SDS011;37283;49.760;8.648;2023-08-17T10:16:11;5.65;;;3.72;;
51216;SDS011;37283;49.760;8.648;2023-08-17T10:18:55;5.20;;;3.80;;
51216;SDS011;37283;49.760;8.648;2023-08-17T10:21:43;4.30;;;3.80;;
51216;SDS011;37283;49.760;8.648;2023-08-17T10:24:13;4.90;;;3.78;;
51216;SDS011;37283;49.760;8.648;2023-08-17T10:26:40;5.05;;;4.40;;
51216;SDS011;37283;49.760;8.648;2023-08-17T10:29:07;4.95;;;4.00;;
51216;SDS011;37283;49.760;8.648;2023-08-17T10:31:43;5.90;;;3.67;;
51216;SDS011;37283;49.760;8.648;2023-08-17T10:34:11;5.55;;;4.07;;
51216;SDS011;37283;49.760;8.648;2023-08-17T10:36:39;4.85;;;3.33;;
51216;SDS011;37283;49.760;8.648;2023-08-17T10:39:23;3.67;;;3.35;;
51216;SDS011;37283;49.760;8.648;2023-08-17T10:41:55;5.00;;;3.63;;
51216;SDS011;37283;49.760;8.648;2023-08-17T10:44:43;7.90;;;3.73;;
51216;SDS011;37283;49.760;8.648;2023-08-17T10:49:57;4.93;;;3.08;;
51216;SDS011;37283;49.760;8.648;2023-08-17T10:52:28;4.53;;;3.40;;
51216;SDS011;37283;49.760;8.648;2023-08-17T10:54:58;5.07;;;3.33;;
51216;SDS011;37283;49.760;8.648;2023-08-17T10:57:29;5.88;;;3.40;;
51216;SDS011;37283;49.760;8.648;2023-08-17T11:00:21;5.25;;;3.30;;
51216;SDS011;37283;49.760;8.648;2023-08-17T11:02:59;4.90;;;3.72;;
51216;SDS011;37283;49.760;8.648;2023-08-17T11:08:28;3.78;;;3.17;;
51216;SDS011;37283;49.760;8.648;2023-08-17T11:13:34;8.63;;;3.50;;
51216;SDS011;37283;49.760;8.648;2023-08-17T11:16:01;5.57;;;3.35;;
51216;SDS011;37283;49.760;8.648;2023-08-17T11:18:31;4.45;;;3.50;;
51216;SDS011;37283;49.760;8.648;2023-08-17T11:20:58;3.60;;;3.30;;
51216;SDS011;37283;49.760;8.648;2023-08-17T11:23:28;4.95;;;3.80;;
51216;SDS011;37283;49.760;8.648;2023-08-17T11:25:55;4.30;;;3.85;;
51216;SDS011;37283;49.760;8.648;2023-08-17T11:28:22;3.78;;;3.40;;
51216;SDS011;37283;49.760;8.648;2023-08-17T11:30:56;6.63;;;3.70;;
51216;SDS011;37283;49.760;8.648;2023-08-17T11:33:28;5.75;;;3.70;;
51216;SDS011;37283;49.760;8.648;2023-08-17T11:35:55;5.32;;;3.35;;
51216;SDS011;37283;49.760;8.648;2023-08-17T11:38:35;5.07;;;3.63;;
51216;SDS011;37283;49.760;8.648;2023-08-17T11:41:02;6.13;;;3.67;;
51216;SDS011;37283;49.760;8.648;2023-08-17T11:43:30;5.32;;;3.28;;
51216;SDS011;37283;49.760;8.648;2023-08-17T11:45:57;3.70;;;3.33;;
51216;SDS011;37283;49.760;8.648;2023-08-17T11:48:25;5.95;;;3.63;;
51216;SDS011;37283;49.760;8.648;2023-08-17T11:50:52;4.43;;;3.63;;
51216;SDS011;37283;49.760;8.648;2023-08-17T11:53:19;7.78;;;3.83;;
51216;SDS011;37283;49.760;8.648;2023-08-17T11:55:45;4.93;;;3.72;;
51216;SDS011;37283;49.760;8.648;2023-08-17T11:58:12;4.97;;;3.45;;
51216;SDS011;37283;49.760;8.648;2023-08-17T12:00:40;6.65;;;3.10;;
51216;SDS011;37283;49.760;8.648;2023-08-17T12:03:08;3.60;;;3.10;;
51216;SDS011;37283;49.760;8.648;2023-08-17T12:05:34;4.47;;;3.00;;
51216;SDS011;37283;49.760;8.648;2023-08-17T12:08:01;4.78;;;3.30;;
51216;SDS011;37283;49.760;8.648;2023-08-17T12:10:28;4.07;;;3.10;;
51216;SDS011;37283;49.760;8.648;2023-08-17T12:12:57;4.18;;;3.08;;
51216;SDS011;37283;49.760;8.648;2023-08-17T12:15:29;4.55;;;3.33;;
51216;SDS011;37283;49.760;8.648;2023-08-17T12:18:01;4.45;;;2.88;;
51216;SDS011;37283;49.760;8.648;2023-08-17T12:20:29;4.03;;;3.00;;
51216;SDS011;37283;49.760;8.648;2023-08-17T12:22:57;5.38;;;3.10;;
51216;SDS011;37283;49.760;8.648;2023-08-17T12:25:25;3.80;;;2.60;;
51216;SDS011;37283;49.760;8.648;2023-08-17T12:27:52;3.35;;;2.63;;
51216;SDS011;37283;49.760;8.648;2023-08-17T12:30:25;5.15;;;2.50;;
51216;SDS011;37283;49.760;8.648;2023-08-17T12:32:52;2.83;;;2.42;;
51216;SDS011;37283;49.760;8.648;2023-08-17T12:35:21;3.60;;;2.50;;
51216;SDS011;37283;49.760;8.648;2023-08-17T12:37:53;3.92;;;2.65;;
51216;SDS011;37283;49.760;8.648;2023-08-17T12:40:20;4.75;;;2.70;;
51216;SDS011;37283;49.760;8.648;2023-08-17T12:42:47;2.95;;;2.30;;
51216;SDS011;37283;49.760;8.648;2023-08-17T12:45:14;4.18;;;2.47;;
51216;SDS011;37283;49.760;8.648;2023-08-17T12:47:41;4.50;;;2.60;;
51216;SDS011;37283;49.760;8.648;2023-08-17T12:50:08;2.72;;;2.40;;
51216;SDS011;37283;49.760;8.648;2023-08-17T12:52:35;2.80;;;2.50;;
51216;SDS011;37283;49.760;8.648;2023-08-17T12:55:02;3.28;;;2.97;;
51216;SDS011;37283;49.760;8.648;2023-08-17T12:57:28;4.40;;;2.92;;
51216;SDS011;37283;49.760;8.648;2023-08-17T12:59:55;3.75;;;3.08;;
51216;SDS011;37283;49.760;8.648;2023-08-17T13:02:22;4.68;;;3.35;;
51216;SDS011;37283;49.760;8.648;2023-08-17T13:04:49;6.40;;;3.42;;
51216;SDS011;37283;49.760;8.648;2023-08-17T13:07:16;5.72;;;3.08;;
51216;SDS011;37283;49.760;8.648;2023-08-17T13:09:42;4.13;;;3.00;;
51216;SDS011;37283;49.760;8.648;2023-08-17T13:12:09;3.60;;;3.28;;
51216;SDS011;37283;49.760;8.648;2023-08-17T13:14:36;4.85;;;2.95;;
51216;SDS011;37283;49.760;8.648;2023-08-17T13:17:02;4.63;;;2.95;;
51216;SDS011;37283;49.760;8.648;2023-08-17T13:19:29;4.88;;;3.40;;
51216;SDS011;37283;49.760;8.648;2023-08-17T13:21:56;3.75;;;3.35;;
51216;SDS011;37283;49.760;8.648;2023-08-17T13:24:23;5.82;;;3.20;;
51216;SDS011;37283;49.760;8.648;2023-08-17T13:26:50;5.10;;;2.97;;
51216;SDS011;37283;49.760;8.648;2023-08-17T13:29:19;3.65;;;3.20;;
51216;SDS011;37283;49.760;8.648;2023-08-17T13:31:47;3.53;;;3.23;;
51216;SDS011;37283;49.760;8.648;2023-08-17T13:34:14;3.70;;;3.13;;
51216;SDS011;37283;49.760;8.648;2023-08-17T13:36:40;4.90;;;3.60;;
51216;SDS011;37283;49.760;8.648;2023-08-17T13:39:07;3.55;;;3.00;;
51216;SDS011;37283;49.760;8.648;2023-08-17T13:41:34;4.68;;;3.40;;
51216;SDS011;37283;49.760;8.648;2023-08-17T13:44:01;5.72;;;3.00;;
51216;SDS011;37283;49.760;8.648;2023-08-17T13:46:28;3.67;;;3.17;;
51216;SDS011;37283;49.760;8.648;2023-08-17T13:48:55;4.05;;;3.10;;
51216;SDS011;37283;49.760;8.648;2023-08-17T13:51:22;3.50;;;3.20;;
51216;SDS011;37283;49.760;8.648;2023-08-17T13:53:48;5.78;;;3.20;;
51216;SDS011;37283;49.760;8.648;2023-08-17T13:56:16;4.40;;;2.88;;
51216;SDS011;37283;49.760;8.648;2023-08-17T13:58:43;3.22;;;2.78;;
51216;SDS011;37283;49.760;8.648;2023-08-17T14:01:09;3.88;;;2.63;;
51216;SDS011;37283;49.760;8.648;2023-08-17T14:03:38;5.30;;;2.58;;
51216;SDS011;37283;49.760;8.648;2023-08-17T14:06:04;3.55;;;2.65;;
51216;SDS011;37283;49.760;8.648;2023-08-17T14:08:31;5.18;;;2.80;;
51216;SDS011;37283;49.760;8.648;2023-08-17T14:10:58;4.88;;;2.95;;
51216;SDS011;37283;49.760;8.648;2023-08-17T14:13:26;3.90;;;2.88;;
51216;SDS011;37283;49.760;8.648;2023-08-17T14:15:52;5.88;;;2.97;;
51216;SDS011;37283;49.760;8.648;2023-08-17T14:18:22;4.72;;;2.92;;
51216;SDS011;37283;49.760;8.648;2023-08-17T14:20:48;4.22;;;2.70;;
51216;SDS011;37283;49.760;8.648;2023-08-17T14:23:15;4.55;;;2.78;;
51216;SDS011;37283;49.760;8.648;2023-08-17T14:25:42;3.60;;;2.42;;
51216;SDS011;37283;49.760;8.648;2023-08-17T14:28:08;3.75;;;2.80;;
51216;SDS011;37283;49.760;8.648;2023-08-17T14:30:35;5.00;;;2.50;;
51216;SDS011;37283;49.760;8.648;2023-08-17T14:33:01;5.07;;;2.83;;
51216;SDS011;37283;49.760;8.648;2023-08-17T14:35:28;7.00;;;2.72;;
51216;SDS011;37283;49.760;8.648;2023-08-17T14:37:55;3.45;;;2.58;;
51216;SDS011;37283;49.760;8.648;2023-08-17T14:40:24;3.10;;;2.53;;
51216;SDS011;37283;49.760;8.648;2023-08-17T14:42:51;5.60;;;2.30;;
51216;SDS011;37283;49.760;8.648;2023-08-17T14:45:20;4.60;;;2.63;;
51216;SDS011;37283;49.760;8.648;2023-08-17T14:47:46;3.03;;;2.25;;
51216;SDS011;37283;49.760;8.648;2023-08-17T14:50:13;3.30;;;2.20;;
51216;SDS011;37283;49.760;8.648;2023-08-17T14:55:08;4.43;;;2.40;;
51216;SDS011;37283;49.760;8.648;2023-08-17T14:57:35;3.20;;;2.10;;
51216;SDS011;37283;49.760;8.648;2023-08-17T15:00:02;9.85;;;2.75;;
51216;SDS011;37283;49.760;8.648;2023-08-17T15:02:30;3.35;;;2.33;;
51216;SDS011;37283;49.760;8.648;2023-08-17T15:04:56;5.32;;;2.30;;
51216;SDS011;37283;49.760;8.648;2023-08-17T15:07:23;2.80;;;2.40;;
51216;SDS011;37283;49.760;8.648;2023-08-17T15:09:50;3.92;;;2.00;;
51216;SDS011;37283;49.760;8.648;2023-08-17T15:12:16;3.97;;;2.00;;
51216;SDS011;37283;49.760;8.648;2023-08-17T15:14:43;6.22;;;2.80;;